createdAt,value
2022-10-18T00:01:05.378Z,23.06
2022-10-18T00:03:33.602Z,23.06
2022-10-18T00:06:01.938Z,23.05
2022-10-18T00:08:30.033Z,23.00
2022-10-18T00:10:57.816Z,23.00
2022-10-18T00:13:27.105Z,22.99
2022-10-18T00:16:00.844Z,23.02
2022-10-18T00:18:30.503Z,22.98
2022-10-18T00:21:00.148Z,23.00
2022-10-18T00:23:29.269Z,23.01
2022-10-18T00:26:02.035Z,22.99
2022-10-18T00:28:30.145Z,22.98
2022-10-18T00:30:58.000Z,22.96
2022-10-18T00:33:25.885Z,22.98
2022-10-18T00:35:55.217Z,23.00
2022-10-18T00:38:23.137Z,22.98
2022-10-18T00:40:50.849Z,23.00
2022-10-18T00:43:19.062Z,23.01
2022-10-18T00:45:46.770Z,23.02
2022-10-18T00:48:17.874Z,23.02
2022-10-18T00:50:49.656Z,23.03
2022-10-18T00:53:21.388Z,23.01
2022-10-18T00:55:50.047Z,23.04
2022-10-18T00:58:20.150Z,23.03
2022-10-18T01:00:48.545Z,23.04
2022-10-18T01:03:16.252Z,23.02
2022-10-18T01:05:46.770Z,23.14
2022-10-18T01:08:39.075Z,23.13
2022-10-18T01:11:18.237Z,23.09
2022-10-18T01:13:57.243Z,23.04
2022-10-18T01:16:30.964Z,23.03
2022-10-18T01:19:03.515Z,22.74
2022-10-18T01:21:45.357Z,22.65
2022-10-18T01:24:45.895Z,22.85
2022-10-18T01:27:31.099Z,22.91
2022-10-18T01:30:29.777Z,22.93
2022-10-18T01:33:04.520Z,22.92
2022-10-18T01:35:38.264Z,22.91
2022-10-18T01:38:09.854Z,22.93
2022-10-18T01:40:41.570Z,22.96
2022-10-18T01:43:11.058Z,22.95
2022-10-18T01:45:38.954Z,22.94
2022-10-18T01:48:10.934Z,22.93
2022-10-18T01:50:38.974Z,22.94
2022-10-18T01:53:06.800Z,22.93
2022-10-18T01:55:42.438Z,22.91
2022-10-18T01:58:21.127Z,22.91
2022-10-18T02:00:56.146Z,22.92
2022-10-18T02:03:27.944Z,22.93
2022-10-18T02:06:06.163Z,22.93
2022-10-18T02:08:38.975Z,22.92
2022-10-18T02:11:09.813Z,22.90
2022-10-18T02:13:41.634Z,22.88
2022-10-18T02:16:22.083Z,22.90
2022-10-18T02:18:57.255Z,22.90
2022-10-18T02:21:27.796Z,22.95
2022-10-18T02:23:58.998Z,22.99
2022-10-18T02:26:27.164Z,23.00
2022-10-18T02:28:55.365Z,23.07
2022-10-18T02:31:28.913Z,23.05
2022-10-18T02:34:01.668Z,23.08
2022-10-18T02:36:34.213Z,23.10
2022-10-18T02:39:06.308Z,23.07
2022-10-18T02:41:37.191Z,23.10
2022-10-18T02:44:05.403Z,23.06
2022-10-18T02:46:34.868Z,22.44
2022-10-18T02:49:04.314Z,21.69
2022-10-18T02:51:32.414Z,21.74
2022-10-18T02:54:00.262Z,21.96
2022-10-18T02:56:28.304Z,22.24
2022-10-18T02:58:56.074Z,22.51
2022-10-18T03:01:24.065Z,22.61
2022-10-18T03:03:52.014Z,22.66
2022-10-18T03:06:21.497Z,22.65
2022-10-18T03:08:49.407Z,22.65
2022-10-18T03:11:17.287Z,22.67
2022-10-18T03:13:51.236Z,22.64
2022-10-18T03:16:19.586Z,22.65
2022-10-18T03:18:47.503Z,22.63
2022-10-18T03:21:15.538Z,22.63
2022-10-18T03:23:47.869Z,22.73
2022-10-18T03:26:15.920Z,22.81
2022-10-18T03:28:43.734Z,22.83
2022-10-18T03:31:11.601Z,22.78
2022-10-18T03:33:42.279Z,22.80
2022-10-18T03:36:10.214Z,22.83
2022-10-18T03:38:38.216Z,22.81
2022-10-18T03:41:07.726Z,22.82
2022-10-18T03:43:35.498Z,22.80
2022-10-18T03:46:03.736Z,22.77
2022-10-18T03:48:34.406Z,22.76
2022-10-18T03:51:02.469Z,22.77
2022-10-18T03:53:30.233Z,22.79
2022-10-18T03:55:58.295Z,22.81
2022-10-18T03:58:27.573Z,22.83
2022-10-18T04:00:56.414Z,22.82
2022-10-18T04:03:24.648Z,22.81
2022-10-18T04:05:52.564Z,22.85
2022-10-18T04:08:20.469Z,22.88
2022-10-18T04:10:48.563Z,22.89
2022-10-18T04:13:16.329Z,22.90
2022-10-18T04:15:45.816Z,22.92
2022-10-18T04:18:13.680Z,22.89
2022-10-18T04:20:41.494Z,22.89
2022-10-18T04:23:09.263Z,22.90
2022-10-18T04:25:37.446Z,22.94
2022-10-18T04:28:07.489Z,22.94
2022-10-18T04:30:35.383Z,22.93
2022-10-18T04:33:04.887Z,22.94
2022-10-18T04:35:32.301Z,22.95
2022-10-18T04:38:00.074Z,22.95
2022-10-18T04:40:28.043Z,22.98
2022-10-18T04:42:56.753Z,23.03
2022-10-18T04:45:24.635Z,23.00
2022-10-18T04:47:52.623Z,23.08
2022-10-18T04:50:22.400Z,23.03
2022-10-18T04:52:52.957Z,23.05
2022-10-18T04:55:34.124Z,23.02
2022-10-18T04:59:03.463Z,22.97
2022-10-18T05:02:14.314Z,22.99
2022-10-18T05:06:00.950Z,22.96
2022-10-18T05:08:59.318Z,22.92
2022-10-18T05:12:15.794Z,22.85
2022-10-18T05:18:17.964Z,22.75
2022-10-18T05:20:53.289Z,22.76
2022-10-18T05:26:55.599Z,22.53
2022-10-18T05:29:23.729Z,22.61
2022-10-18T05:32:14.848Z,22.73
2022-10-18T05:34:54.870Z,22.72
2022-10-18T05:37:35.890Z,22.80
2022-10-18T05:40:22.315Z,22.78
2022-10-18T05:42:55.251Z,22.83
2022-10-18T05:49:21.985Z,23.03
2022-10-18T05:51:49.946Z,23.14
2022-10-18T05:54:19.221Z,23.18
2022-10-18T05:56:49.364Z,23.28
2022-10-18T05:59:17.554Z,23.19
2022-10-18T06:01:45.359Z,23.18
2022-10-18T06:04:13.372Z,23.27
2022-10-18T06:06:41.187Z,23.20
2022-10-18T06:09:09.667Z,23.19
2022-10-18T06:11:39.153Z,23.12
2022-10-18T06:14:08.591Z,23.13
2022-10-18T06:16:39.792Z,23.23
2022-10-18T06:19:08.314Z,23.26
2022-10-18T06:21:36.363Z,23.11
2022-10-18T06:24:06.143Z,23.36
2022-10-18T06:26:34.620Z,23.35
2022-10-18T06:29:06.162Z,23.38
2022-10-18T06:31:34.229Z,23.18
2022-10-18T06:34:03.089Z,23.22
2022-10-18T06:36:31.345Z,23.41
2022-10-18T06:39:01.470Z,23.05
2022-10-18T06:41:29.681Z,23.10
2022-10-18T06:44:05.160Z,22.97
2022-10-18T06:46:33.079Z,22.34
2022-10-18T06:49:01.502Z,22.11
2022-10-18T06:51:29.673Z,22.28
2022-10-18T06:54:16.873Z,22.38
2022-10-18T06:56:45.695Z,22.49
2022-10-18T06:59:15.118Z,22.06
2022-10-18T07:01:43.049Z,21.93
2022-10-18T07:04:10.937Z,21.44
2022-10-18T07:06:38.900Z,21.31
2022-10-18T07:09:06.755Z,21.06
2022-10-18T07:11:34.757Z,20.96
2022-10-18T07:14:03.448Z,21.18
2022-10-18T07:16:34.365Z,20.65
2022-10-18T07:19:02.090Z,20.23
2022-10-18T07:21:29.880Z,20.05
2022-10-18T07:23:58.197Z,20.03
2022-10-18T07:26:27.713Z,20.11
2022-10-18T07:28:58.157Z,20.00
2022-10-18T07:31:26.357Z,20.06
2022-10-18T07:33:55.934Z,20.19
2022-10-18T07:36:23.520Z,20.33
2022-10-18T07:38:52.370Z,20.38
2022-10-18T07:41:23.201Z,21.10
2022-10-18T07:43:52.510Z,21.84
2022-10-18T07:46:21.118Z,21.92
2022-10-18T07:48:51.491Z,21.88
2022-10-18T07:51:21.338Z,21.82
2022-10-18T07:53:48.621Z,22.05
2022-10-18T07:56:19.038Z,22.28
2022-10-18T07:58:49.218Z,22.52
2022-10-18T08:01:17.596Z,22.54
2022-10-18T08:03:45.664Z,22.54
2022-10-18T08:06:16.387Z,22.54
2022-10-18T08:08:46.936Z,22.57
2022-10-18T08:11:16.373Z,22.44
2022-10-18T08:13:44.379Z,22.69
2022-10-18T08:16:14.499Z,22.50
2022-10-18T08:18:42.489Z,22.62
2022-10-18T08:21:13.780Z,22.64
2022-10-18T08:23:42.857Z,22.67
2022-10-18T08:26:14.787Z,22.73
2022-10-18T08:28:49.263Z,22.76
2022-10-18T08:31:22.088Z,22.78
2022-10-18T08:33:49.982Z,22.70
2022-10-18T08:36:18.327Z,22.77
2022-10-18T08:38:46.309Z,22.72
2022-10-18T08:41:34.212Z,22.83
2022-10-18T08:44:10.574Z,22.75
2022-10-18T08:46:42.818Z,22.51
2022-10-18T08:49:19.051Z,22.61
2022-10-18T08:51:49.649Z,22.38
2022-10-18T08:54:24.626Z,22.67
2022-10-18T08:56:59.150Z,22.37
2022-10-18T08:59:32.964Z,22.52
2022-10-18T09:02:13.334Z,22.42
2022-10-18T09:04:55.522Z,22.36
2022-10-18T09:08:03.171Z,22.30
2022-10-18T09:10:43.903Z,21.80
2022-10-18T09:13:40.328Z,22.50
2022-10-18T09:17:15.839Z,22.36
2022-10-18T09:20:27.162Z,22.59
2022-10-18T09:23:43.532Z,22.68
2022-10-18T09:26:22.846Z,22.62
2022-10-18T09:32:58.768Z,22.68
2022-10-18T09:35:43.762Z,22.69
2022-10-18T09:38:33.054Z,22.67
2022-10-18T09:41:12.881Z,22.66
2022-10-18T09:43:57.348Z,22.62
2022-10-18T09:47:00.386Z,22.56
2022-10-18T09:49:51.785Z,22.58
2022-10-18T09:52:32.356Z,22.65
2022-10-18T09:55:31.234Z,22.55
2022-10-18T10:05:53.373Z,22.55
2022-10-18T10:08:47.209Z,22.68
2022-10-18T10:14:30.978Z,22.68
2022-10-18T10:17:07.590Z,22.57
2022-10-18T10:23:05.703Z,22.63
2022-10-18T10:33:03.434Z,22.58
2022-10-18T10:36:22.976Z,22.75
2022-10-18T10:39:24.880Z,22.55
2022-10-18T10:42:07.992Z,22.59
2022-10-18T10:45:20.351Z,22.53
2022-10-18T10:47:55.460Z,22.47
2022-10-18T10:50:49.920Z,22.50
2022-10-18T10:53:35.410Z,22.00
2022-10-18T10:56:36.337Z,22.23
2022-10-18T10:59:31.104Z,22.28
2022-10-18T11:02:29.941Z,22.46
2022-10-18T11:05:24.038Z,22.50
2022-10-18T11:08:30.653Z,22.68
2022-10-18T11:11:38.307Z,22.71
2022-10-18T11:14:26.877Z,22.80
2022-10-18T11:20:25.107Z,22.79
2022-10-18T11:23:11.829Z,22.82
2022-10-18T11:26:20.488Z,22.90
2022-10-18T11:29:21.679Z,22.80
2022-10-18T11:32:38.422Z,22.73
2022-10-18T11:35:42.154Z,22.85
2022-10-18T11:38:42.569Z,22.74
2022-10-18T11:41:38.047Z,22.68
2022-10-18T11:44:23.716Z,22.62
2022-10-18T11:47:15.506Z,22.43
2022-10-18T11:50:25.418Z,22.09
2022-10-18T11:53:22.934Z,22.36
2022-10-18T11:56:09.083Z,22.47
2022-10-18T11:59:28.644Z,22.36
2022-10-18T12:05:30.149Z,22.77
2022-10-18T12:08:48.078Z,22.79
2022-10-18T12:12:06.529Z,22.85
2022-10-18T12:14:53.058Z,22.83
2022-10-18T12:17:51.379Z,22.89
2022-10-18T12:20:28.060Z,22.91
2022-10-18T12:23:23.394Z,22.91
2022-10-18T12:26:27.811Z,22.90
2022-10-18T12:29:07.859Z,22.91
2022-10-18T12:31:46.381Z,22.90
2022-10-18T12:34:36.678Z,22.93
2022-10-18T12:37:44.845Z,22.86
2022-10-18T12:40:57.429Z,22.89
2022-10-18T12:44:12.250Z,22.93
2022-10-18T12:46:49.462Z,22.94
2022-10-18T12:53:01.228Z,22.88
2022-10-18T12:58:44.370Z,22.91
2022-10-18T13:01:23.842Z,22.92
2022-10-18T13:03:56.878Z,22.99
2022-10-18T13:10:51.640Z,22.98
2022-10-18T13:14:00.287Z,23.00
2022-10-18T13:16:43.322Z,22.97
2022-10-18T13:19:22.062Z,22.93
2022-10-18T13:22:31.535Z,22.93
2022-10-18T13:25:21.444Z,21.73
2022-10-18T13:28:02.994Z,22.42
2022-10-18T13:31:00.932Z,22.38
2022-10-18T13:33:33.872Z,22.36
2022-10-18T13:36:03.732Z,22.50
2022-10-18T13:38:45.816Z,22.48
2022-10-18T13:41:16.941Z,22.41
2022-10-18T13:44:47.075Z,22.33
2022-10-18T13:47:55.069Z,22.38
2022-10-18T13:50:42.480Z,22.37
2022-10-18T13:57:15.890Z,22.56
2022-10-18T14:00:30.345Z,22.58
2022-10-18T14:03:58.580Z,22.56
2022-10-18T14:06:47.125Z,22.51
2022-10-18T14:09:48.637Z,22.51
2022-10-18T14:12:44.050Z,22.55
2022-10-18T14:15:18.392Z,22.50
2022-10-18T14:17:57.340Z,22.47
2022-10-18T14:21:12.915Z,22.38
2022-10-18T14:23:43.963Z,22.47
2022-10-18T14:26:20.046Z,22.49
2022-10-18T14:29:16.400Z,22.48
2022-10-18T14:32:00.392Z,22.40
2022-10-18T14:34:43.820Z,22.14
2022-10-18T14:37:41.017Z,22.18
2022-10-18T14:40:30.080Z,22.24
2022-10-18T14:43:21.021Z,22.20
2022-10-18T14:46:08.645Z,22.26
2022-10-18T14:48:42.706Z,22.24
2022-10-18T14:51:12.031Z,22.22
2022-10-18T14:53:48.477Z,22.31
2022-10-18T14:56:39.347Z,22.38
2022-10-18T14:59:18.989Z,22.53
2022-10-18T15:01:56.309Z,22.61
2022-10-18T15:04:28.468Z,22.60
2022-10-18T15:06:57.020Z,22.65
2022-10-18T15:11:56.617Z,22.69
2022-10-18T15:14:26.613Z,22.26
2022-10-18T15:17:00.091Z,21.84
2022-10-18T15:19:30.920Z,22.48
2022-10-18T15:25:07.109Z,22.62
2022-10-18T15:27:37.966Z,22.70
2022-10-18T15:30:08.000Z,22.66
2022-10-18T15:32:35.677Z,22.65
2022-10-18T15:35:09.245Z,22.63
2022-10-18T15:37:40.238Z,22.62
2022-10-18T15:40:29.061Z,22.60
2022-10-18T15:42:58.988Z,22.64
2022-10-18T15:48:25.090Z,22.51
2022-10-18T15:50:54.099Z,22.61
2022-10-18T15:53:51.868Z,22.58
2022-10-18T15:56:32.319Z,22.61
2022-10-18T15:59:01.266Z,22.63
2022-10-18T16:01:35.343Z,22.55
2022-10-18T16:04:08.007Z,22.59
2022-10-18T16:06:35.384Z,22.55
2022-10-18T16:09:02.936Z,22.29
2022-10-18T16:11:31.872Z,22.37
2022-10-18T16:14:00.667Z,22.37
2022-10-18T16:16:29.612Z,22.47
2022-10-18T16:18:57.919Z,22.50
2022-10-18T16:21:27.704Z,22.46
2022-10-18T16:23:55.485Z,22.57
2022-10-18T16:26:23.373Z,22.58
2022-10-18T16:28:53.456Z,22.59
2022-10-18T16:31:22.480Z,22.61
2022-10-18T16:33:50.997Z,22.62
2022-10-18T16:36:19.900Z,22.59
2022-10-18T16:38:48.317Z,22.59
2022-10-18T16:41:16.496Z,22.61
2022-10-18T16:43:45.527Z,22.58
2022-10-18T16:46:17.201Z,22.62
2022-10-18T16:48:45.185Z,22.59
2022-10-18T16:51:12.836Z,22.63
2022-10-18T16:53:40.310Z,22.66
2022-10-18T16:56:13.659Z,22.61
2022-10-18T16:58:41.394Z,22.60
2022-10-18T17:01:11.192Z,22.58
2022-10-18T17:03:40.382Z,22.56
2022-10-18T17:06:14.572Z,22.56
2022-10-18T17:08:41.991Z,22.57
2022-10-18T17:11:10.486Z,22.56
2022-10-18T17:13:38.504Z,22.58
2022-10-18T17:16:06.871Z,22.58
2022-10-18T17:18:34.303Z,22.48
2022-10-18T17:21:03.375Z,22.47
2022-10-18T17:23:31.221Z,22.49
2022-10-18T17:26:08.545Z,22.53
2022-10-18T17:28:46.215Z,22.51
2022-10-18T17:31:15.377Z,22.56
2022-10-18T17:33:42.906Z,22.55
2022-10-18T17:36:12.624Z,22.54
2022-10-18T17:38:40.168Z,22.56
2022-10-18T17:41:08.392Z,22.50
2022-10-18T17:43:37.501Z,22.48
2022-10-18T17:46:05.834Z,22.54
2022-10-18T17:48:33.482Z,22.41
2022-10-18T17:51:01.039Z,22.44
2022-10-18T17:53:29.871Z,22.49
2022-10-18T17:56:02.606Z,22.51
2022-10-18T17:58:30.677Z,22.54
2022-10-18T18:00:58.261Z,22.56
2022-10-18T18:03:27.239Z,22.56
2022-10-18T18:05:54.861Z,22.58
2022-10-18T18:08:22.505Z,22.59
2022-10-18T18:10:54.578Z,22.56
2022-10-18T18:13:22.320Z,22.54
2022-10-18T18:15:49.881Z,22.44
2022-10-18T18:18:17.607Z,22.48
2022-10-18T18:20:53.317Z,22.44
2022-10-18T18:23:22.539Z,22.45
2022-10-18T18:25:57.093Z,22.46
2022-10-18T18:28:24.782Z,22.43
2022-10-18T18:30:52.189Z,22.49
2022-10-18T18:33:19.823Z,22.52
2022-10-18T18:35:55.008Z,22.50
2022-10-18T18:38:22.451Z,22.55
2022-10-18T18:40:49.943Z,22.45
2022-10-18T18:43:26.107Z,22.52
2022-10-18T18:45:53.572Z,22.53
2022-10-18T18:48:21.061Z,22.53
2022-10-18T18:50:49.001Z,22.48
2022-10-18T18:53:16.553Z,22.51
2022-10-18T18:55:44.049Z,22.53
2022-10-18T18:58:12.281Z,22.54
2022-10-18T19:00:44.281Z,22.53
2022-10-18T19:03:12.599Z,22.55
2022-10-18T19:05:40.108Z,22.51
2022-10-18T19:08:07.475Z,22.54
2022-10-18T19:10:35.009Z,22.51
2022-10-18T19:13:02.406Z,22.54
2022-10-18T19:15:29.813Z,22.55
2022-10-18T19:17:58.869Z,22.49
2022-10-18T19:20:26.336Z,22.54
2022-10-18T19:22:53.830Z,22.53
2022-10-18T19:25:23.441Z,22.49
2022-10-18T19:27:53.626Z,22.49
2022-10-18T19:30:21.207Z,22.49
2022-10-18T19:32:48.626Z,22.52
2022-10-18T19:35:17.487Z,22.52
2022-10-18T19:37:44.911Z,22.53
2022-10-18T19:40:13.386Z,22.51
2022-10-18T19:42:40.777Z,22.53
2022-10-18T19:45:09.064Z,22.54
2022-10-18T19:47:36.584Z,22.54
2022-10-18T19:50:04.438Z,22.53
2022-10-18T19:52:33.314Z,22.52
2022-10-18T19:55:01.210Z,22.49
2022-10-18T19:57:28.589Z,22.45
2022-10-18T19:59:56.745Z,22.45
2022-10-18T20:02:24.408Z,22.52
2022-10-18T20:04:51.847Z,22.52
2022-10-18T20:07:19.196Z,22.54
2022-10-18T20:09:48.002Z,22.54
2022-10-18T20:12:15.375Z,22.51
2022-10-18T20:14:42.756Z,22.47
2022-10-18T20:17:10.090Z,22.50
2022-10-18T20:19:37.418Z,22.51
2022-10-18T20:22:04.766Z,22.49
2022-10-18T20:24:32.116Z,22.45
2022-10-18T20:27:00.937Z,22.48
2022-10-18T20:29:28.365Z,22.50
2022-10-18T20:31:55.743Z,22.51
2022-10-18T20:34:23.653Z,22.48
2022-10-18T20:36:50.993Z,22.49
2022-10-18T20:39:18.337Z,22.52
2022-10-18T20:41:45.667Z,22.53
2022-10-18T20:44:16.650Z,22.53
2022-10-18T20:46:44.501Z,22.49
2022-10-18T20:49:15.007Z,22.50
2022-10-18T20:51:42.823Z,22.50
2022-10-18T20:54:10.908Z,22.47
2022-10-18T20:56:39.028Z,22.48
2022-10-18T20:59:07.378Z,22.43
2022-10-18T21:01:37.049Z,22.47
2022-10-18T21:04:05.257Z,22.48
2022-10-18T21:06:33.796Z,22.48
2022-10-18T21:09:03.646Z,22.42
2022-10-18T21:11:34.352Z,22.48
2022-10-18T21:14:02.645Z,22.48
2022-10-18T21:16:30.904Z,22.43
2022-10-18T21:19:03.644Z,22.45
2022-10-18T21:21:31.118Z,22.48
2022-10-18T21:24:01.195Z,22.49
2022-10-18T21:26:31.424Z,22.49
2022-10-18T21:28:59.272Z,22.44
2022-10-18T21:31:29.266Z,22.45
2022-10-18T21:33:58.705Z,22.44
2022-10-18T21:36:30.621Z,22.44
2022-10-18T21:38:58.669Z,22.43
2022-10-18T21:41:26.252Z,22.47
2022-10-18T21:43:55.149Z,22.49
2022-10-18T21:46:24.415Z,22.47
2022-10-18T21:48:52.970Z,22.52
2022-10-18T21:51:22.683Z,22.52
2022-10-18T21:53:51.876Z,22.50
2022-10-18T21:56:21.318Z,22.51
2022-10-18T21:58:49.833Z,22.53
2022-10-18T22:01:19.647Z,22.52
2022-10-18T22:03:49.131Z,22.51
2022-10-18T22:06:17.475Z,22.47
2022-10-18T22:08:48.387Z,22.50
2022-10-18T22:11:18.268Z,22.50
2022-10-18T22:13:46.071Z,22.53
2022-10-18T22:16:15.113Z,22.51
2022-10-18T22:18:43.439Z,22.48
2022-10-18T22:21:13.187Z,22.49
2022-10-18T22:23:42.914Z,22.52
2022-10-18T22:26:11.905Z,22.52
2022-10-18T22:28:42.011Z,22.51
2022-10-18T22:31:14.479Z,22.55
2022-10-18T22:33:41.835Z,22.55
2022-10-18T22:36:09.361Z,22.51
2022-10-18T22:38:37.096Z,22.51
2022-10-18T22:41:05.576Z,22.50
2022-10-18T22:43:32.989Z,22.47
2022-10-18T22:46:02.685Z,22.51
2022-10-18T22:48:29.945Z,22.49
2022-10-18T22:50:57.944Z,22.46
2022-10-18T22:53:25.680Z,22.50
2022-10-18T22:55:53.039Z,22.46
2022-10-18T22:58:21.036Z,22.51
2022-10-18T23:00:48.416Z,22.47
2022-10-18T23:03:18.985Z,22.49
2022-10-18T23:05:47.173Z,22.51
2022-10-18T23:08:14.609Z,22.49
2022-10-18T23:10:42.943Z,22.50
2022-10-18T23:13:10.653Z,22.49
2022-10-18T23:15:38.103Z,22.52
2022-10-18T23:18:05.902Z,22.53
2022-10-18T23:20:34.834Z,22.51
2022-10-18T23:23:02.182Z,22.52
2022-10-18T23:25:29.599Z,22.52
2022-10-18T23:27:57.662Z,22.50
2022-10-18T23:30:25.023Z,22.49
2022-10-18T23:32:52.416Z,22.49
2022-10-18T23:35:19.748Z,22.48
2022-10-18T23:37:48.585Z,22.50
2022-10-18T23:40:16.110Z,22.49
2022-10-18T23:42:43.503Z,22.48
2022-10-18T23:45:11.184Z,22.46
2022-10-18T23:47:38.559Z,22.41
2022-10-18T23:50:06.750Z,22.44
2022-10-18T23:52:34.130Z,22.45
2022-10-18T23:55:02.919Z,22.45
2022-10-18T23:57:30.428Z,22.46
2022-10-18T23:59:57.972Z,22.50
